Time;durP1;ratioP1;P1;durP2;ratioP2;P2;SDS_P1;SDS_P2;PMS_P1;PMS_P2;Temp;Humidity;BMP_temperature;BMP_pressure;BME280_temperature;BME280_humidity;BME280_pressure;Samples;Min_cycle;Max_cycle;Signal;HPM_P1;HPM_P2
2022/06/24 00:02:10;;;;;;;7.23;3.30;;;17.70;57.50;;;;;;5115010;28;20036;-88
2022/06/24 00:04:36;;;;;;;3.08;2.72;;;17.70;57.80;;;;;;5115186;28;20660;-85
2022/06/24 00:07:14;;;;;;;6.63;3.25;;;17.70;57.90;;;;;;5104958;28;20030;-85
2022/06/24 00:09:42;;;;;;;14.05;3.45;;;17.70;57.80;;;;;;5110236;28;20019;-87
2022/06/24 00:12:10;;;;;;;5.50;3.20;;;17.70;57.70;;;;;;5099595;28;20058;-88
2022/06/24 00:14:38;;;;;;;7.20;3.17;;;17.60;57.40;;;;;;5096525;28;20115;-84
2022/06/24 00:17:08;;;;;;;7.07;3.35;;;17.60;57.50;;;;;;5104735;28;20130;-82
2022/06/24 00:19:52;;;;;;;6.80;3.25;;;17.60;57.70;;;;;;5106865;28;20034;-83
2022/06/24 00:22:18;;;;;;;3.92;3.20;;;17.60;58.00;;;;;;5111237;28;20097;-82
2022/06/24 00:24:44;;;;;;;9.15;3.78;;;17.60;58.30;;;;;;5113095;28;20095;-81
2022/06/24 00:27:24;;;;;;;7.32;3.65;;;17.60;58.30;;;;;;5093867;28;20147;-84
2022/06/24 00:29:54;;;;;;;8.77;4.07;;;17.60;58.10;;;;;;5112663;28;20027;-83
2022/06/24 00:32:33;;;;;;;9.90;4.55;;;17.60;58.70;;;;;;5101031;28;20567;-84
2022/06/24 00:35:12;;;;;;;7.05;3.88;;;17.60;59.00;;;;;;5112361;28;20024;-83
2022/06/24 00:37:39;;;;;;;6.47;3.60;;;17.60;59.10;;;;;;5112852;28;20022;-84
2022/06/24 00:40:11;;;;;;;8.18;4.00;;;17.60;59.40;;;;;;5112329;28;20511;-84
2022/06/24 00:42:45;;;;;;;9.05;4.05;;;17.60;59.00;;;;;;5112407;28;20054;-82
2022/06/24 00:45:18;;;;;;;9.07;4.10;;;17.60;59.00;;;;;;5112842;28;20476;-84
2022/06/24 00:47:46;;;;;;;5.35;3.47;;;17.60;58.90;;;;;;5110547;28;20028;-82
2022/06/24 00:50:21;;;;;;;5.90;3.63;;;17.60;59.00;;;;;;5108853;28;20020;-83
2022/06/24 00:52:48;;;;;;;7.43;3.67;;;17.50;58.80;;;;;;5112521;28;20020;-83
2022/06/24 00:55:23;;;;;;;6.05;3.40;;;17.60;59.50;;;;;;5109283;28;20016;-83
2022/06/24 00:57:49;;;;;;;11.85;4.45;;;17.50;59.60;;;;;;5112459;28;20019;-83
2022/06/24 01:00:16;;;;;;;6.30;3.20;;;17.40;59.20;;;;;;5100531;28;20085;-82
2022/06/24 01:02:42;;;;;;;6.55;3.78;;;17.40;59.20;;;;;;5107362;28;20036;-83
2022/06/24 01:05:09;;;;;;;8.55;3.65;;;17.40;59.20;;;;;;5109596;28;20017;-81
2022/06/24 01:07:41;;;;;;;11.27;3.85;;;17.40;59.50;;;;;;5122769;28;20600;-82
2022/06/24 01:10:09;;;;;;;10.88;4.22;;;17.40;59.50;;;;;;5112130;28;20031;-82
2022/06/24 01:12:35;;;;;;;8.82;3.85;;;17.40;59.40;;;;;;5103056;27;20492;-82
2022/06/24 01:15:02;;;;;;;8.48;3.95;;;17.40;59.60;;;;;;5136734;27;20128;-82
2022/06/24 01:17:28;;;;;;;8.68;3.67;;;17.40;59.40;;;;;;5118032;27;20015;-82
2022/06/24 01:19:54;;;;;;;7.03;3.60;;;17.40;59.50;;;;;;5108144;28;20476;-83
2022/06/24 01:22:26;;;;;;;11.45;3.65;;;17.40;59.70;;;;;;5131356;27;20429;-83
2022/06/24 01:24:54;;;;;;;5.95;3.78;;;17.50;59.70;;;;;;5133954;27;20023;-83
2022/06/24 01:27:20;;;;;;;7.93;4.38;;;17.50;59.90;;;;;;5136296;27;20096;-83
2022/06/24 01:29:46;;;;;;;8.55;3.53;;;17.60;60.00;;;;;;5136233;27;20050;-81
2022/06/24 01:32:12;;;;;;;10.88;4.20;;;17.60;60.70;;;;;;5136256;27;20033;-84
2022/06/24 01:34:38;;;;;;;9.48;4.30;;;17.60;60.30;;;;;;5136349;27;20472;-82
2022/06/24 01:37:04;;;;;;;9.85;4.20;;;17.60;60.50;;;;;;5106947;28;20099;-83
2022/06/24 01:39:30;;;;;;;6.63;4.82;;;17.70;60.80;;;;;;5132652;27;20023;-82
2022/06/24 01:41:57;;;;;;;16.80;4.55;;;17.70;60.80;;;;;;5136211;27;20027;-83
2022/06/24 01:44:22;;;;;;;9.18;4.57;;;17.70;61.00;;;;;;5135242;27;20388;-84
2022/06/24 01:46:49;;;;;;;11.25;4.72;;;17.70;61.50;;;;;;5117825;27;20023;-84
2022/06/24 01:49:15;;;;;;;8.30;4.60;;;17.80;61.30;;;;;;5136188;27;20012;-83
2022/06/24 01:51:43;;;;;;;10.82;4.40;;;17.80;61.20;;;;;;5135936;27;20277;-85
2022/06/24 01:54:09;;;;;;;8.90;4.65;;;17.90;61.60;;;;;;5135940;27;20464;-84
2022/06/24 01:56:35;;;;;;;7.22;4.07;;;18.00;61.80;;;;;;5127269;27;20102;-84
2022/06/24 01:59:01;;;;;;;7.38;4.03;;;18.00;61.60;;;;;;5117495;27;20425;-83
2022/06/24 02:01:27;;;;;;;12.48;4.68;;;18.00;61.50;;;;;;5136785;27;20064;-82
2022/06/24 02:03:53;;;;;;;12.25;4.55;;;18.00;61.50;;;;;;5137877;27;20031;-84
2022/06/24 02:06:19;;;;;;;7.82;4.45;;;18.10;61.60;;;;;;5136490;27;20026;-82
2022/06/24 02:08:45;;;;;;;8.18;3.90;;;18.10;61.50;;;;;;5135203;27;20027;-84
2022/06/24 02:13:58;;;;;;;6.07;3.97;;;18.10;61.60;;;;;;5136331;27;20491;-85
2022/06/24 02:16:24;;;;;;;9.77;3.90;;;18.20;61.50;;;;;;5136505;27;20035;-83
2022/06/24 02:18:50;;;;;;;6.90;4.00;;;18.20;61.20;;;;;;5117645;27;20019;-84
2022/06/24 02:21:16;;;;;;;9.88;4.35;;;18.30;61.10;;;;;;5117077;27;20035;-85
2022/06/24 02:23:43;;;;;;;5.40;3.72;;;18.30;61.10;;;;;;5133979;27;20034;-83
2022/06/24 02:26:10;;;;;;;8.33;4.77;;;18.30;61.10;;;;;;5135509;27;20088;-83
2022/06/24 02:28:36;;;;;;;7.75;3.90;;;18.40;61.30;;;;;;5138031;27;20023;-83
2022/06/24 02:31:02;;;;;;;9.27;4.40;;;18.40;61.40;;;;;;5151832;27;20438;-82
2022/06/24 02:33:29;;;;;;;7.90;4.70;;;18.40;61.20;;;;;;5143137;27;20083;-83
2022/06/24 02:35:55;;;;;;;7.07;4.87;;;18.50;61.60;;;;;;5135416;27;20039;-83
2022/06/24 02:38:21;;;;;;;8.05;4.55;;;18.40;61.70;;;;;;5135379;27;20023;-84
2022/06/24 02:40:49;;;;;;;10.80;4.88;;;18.50;61.70;;;;;;5135534;27;20034;-83
2022/06/24 02:43:27;;;;;;;7.75;4.65;;;18.50;61.70;;;;;;5135100;27;20031;-83
2022/06/24 02:46:01;;;;;;;9.00;4.65;;;18.60;61.40;;;;;;5131002;27;20023;-83
2022/06/24 02:48:28;;;;;;;13.25;3.97;;;18.60;60.80;;;;;;5134975;27;20357;-83
2022/06/24 02:50:57;;;;;;;11.45;4.43;;;18.70;61.20;;;;;;5134727;27;20090;-83
2022/06/24 02:53:24;;;;;;;8.00;4.43;;;18.70;61.30;;;;;;5134992;27;20050;-82
2022/06/24 02:55:53;;;;;;;6.77;4.60;;;18.80;60.80;;;;;;5125653;27;20027;-84
2022/06/24 02:58:19;;;;;;;8.05;4.13;;;18.90;61.10;;;;;;5127951;27;20308;-83
2022/06/24 03:00:45;;;;;;;6.63;3.25;;;19.00;60.80;;;;;;5135262;27;20020;-83
2022/06/24 03:03:14;;;;;;;4.28;2.70;;;19.10;58.20;;;;;;5134983;27;20054;-83
2022/06/24 03:05:41;;;;;;;7.07;3.72;;;19.30;56.30;;;;;;5127429;27;20024;-83
2022/06/24 03:08:08;;;;;;;5.55;2.90;;;19.50;55.40;;;;;;5118481;27;20535;-82
2022/06/24 03:10:34;;;;;;;4.65;2.88;;;19.70;55.10;;;;;;5127866;27;20051;-82
2022/06/24 03:13:01;;;;;;;6.18;2.70;;;19.90;54.70;;;;;;5126758;27;20023;-82
2022/06/24 03:15:27;;;;;;;6.78;3.20;;;20.10;53.90;;;;;;5134134;27;20019;-83
2022/06/24 03:17:53;;;;;;;5.72;2.95;;;20.20;53.60;;;;;;5115934;27;20027;-82
2022/06/24 03:20:19;;;;;;;5.45;3.15;;;20.20;53.20;;;;;;5130073;27;20027;-83
2022/06/24 03:22:45;;;;;;;8.52;2.90;;;20.20;53.20;;;;;;5134306;27;20063;-82
2022/06/24 03:25:11;;;;;;;3.85;2.90;;;20.20;53.50;;;;;;5134255;27;20015;-83
2022/06/24 03:27:37;;;;;;;3.42;2.80;;;20.20;53.30;;;;;;5115507;27;20490;-83
2022/06/24 03:30:07;;;;;;;8.95;2.63;;;20.20;52.90;;;;;;5134083;27;20023;-83
2022/06/24 03:32:33;;;;;;;5.55;2.60;;;20.30;53.00;;;;;;5133992;27;20019;-82
2022/06/24 03:34:59;;;;;;;4.90;2.28;;;20.30;53.10;;;;;;5115757;27;20111;-81
2022/06/24 03:37:26;;;;;;;7.47;3.72;;;20.30;53.40;;;;;;5133679;27;20027;-82
2022/06/24 03:39:52;;;;;;;4.60;3.05;;;20.30;52.90;;;;;;5133776;27;20020;-82
2022/06/24 03:42:18;;;;;;;5.15;2.50;;;20.40;52.50;;;;;;5133561;27;20107;-82
2022/06/24 03:44:44;;;;;;;6.72;2.95;;;20.40;52.00;;;;;;5133794;27;20019;-82
2022/06/24 03:47:09;;;;;;;5.68;2.45;;;20.40;52.10;;;;;;5133722;27;20066;-82
2022/06/24 03:49:35;;;;;;;5.30;2.63;;;20.40;52.00;;;;;;5134190;27;20564;-83
2022/06/24 03:52:01;;;;;;;4.40;2.83;;;20.40;51.90;;;;;;5113045;28;20031;-83
2022/06/24 03:54:27;;;;;;;4.95;2.67;;;20.50;52.00;;;;;;5126066;27;20106;-83
2022/06/24 03:56:52;;;;;;;4.68;2.70;;;20.50;52.00;;;;;;5132208;27;20031;-82
2022/06/24 03:59:18;;;;;;;6.53;2.70;;;20.60;51.90;;;;;;5134298;27;20098;-83
2022/06/24 04:01:44;;;;;;;4.22;2.60;;;20.60;52.00;;;;;;5144794;27;20027;-82
2022/06/24 04:04:10;;;;;;;6.82;2.42;;;20.60;52.40;;;;;;5147146;27;20368;-83
2022/06/24 04:06:36;;;;;;;3.78;2.80;;;20.70;52.10;;;;;;5123738;27;20031;-83
2022/06/24 04:09:02;;;;;;;8.57;3.47;;;20.80;52.10;;;;;;5129616;27;20423;-83
2022/06/24 04:11:28;;;;;;;4.07;2.88;;;20.80;52.00;;;;;;5118192;27;20016;-84
2022/06/24 04:13:54;;;;;;;6.13;3.17;;;20.90;52.30;;;;;;5132435;27;20042;-83
2022/06/24 04:16:20;;;;;;;4.68;2.65;;;21.00;52.40;;;;;;5115094;27;20027;-83
2022/06/24 04:18:47;;;;;;;3.37;2.37;;;21.00;52.10;;;;;;5115599;27;20085;-83
2022/06/24 04:21:17;;;;;;;3.13;2.75;;;21.20;51.80;;;;;;5133578;27;20047;-83
2022/06/24 04:23:44;;;;;;;4.88;2.42;;;21.30;51.50;;;;;;5113091;27;20038;-83
2022/06/24 04:26:11;;;;;;;5.65;2.50;;;21.40;51.60;;;;;;5133213;27;20023;-82
2022/06/24 04:28:37;;;;;;;6.32;3.03;;;21.40;51.40;;;;;;5115147;27;20449;-82
2022/06/24 04:31:03;;;;;;;6.03;2.40;;;21.50;51.30;;;;;;5133287;27;20047;-83
2022/06/24 04:33:29;;;;;;;8.20;3.15;;;21.60;50.40;;;;;;5133486;27;20073;-83
2022/06/24 04:35:55;;;;;;;4.97;2.60;;;21.60;50.60;;;;;;5133378;27;20111;-82
2022/06/24 04:38:21;;;;;;;4.60;2.08;;;21.70;50.70;;;;;;5133376;28;20472;-83
2022/06/24 04:40:47;;;;;;;5.88;2.10;;;21.80;49.50;;;;;;5133007;28;20023;-83
2022/06/24 04:43:13;;;;;;;6.57;2.40;;;21.80;49.40;;;;;;5133151;28;20510;-83
2022/06/24 04:45:39;;;;;;;3.13;1.65;;;21.90;49.20;;;;;;5132896;28;20024;-81
2022/06/24 04:48:05;;;;;;;14.93;5.97;;;22.00;48.10;;;;;;5132975;28;20015;-80
2022/06/24 04:50:31;;;;;;;4.88;2.20;;;22.10;48.30;;;;;;5133150;28;20023;-82
2022/06/24 04:52:57;;;;;;;4.32;2.33;;;22.20;47.50;;;;;;5114083;28;20027;-81
2022/06/24 04:55:24;;;;;;;4.20;2.10;;;22.20;47.40;;;;;;5124849;28;20041;-82
2022/06/24 04:57:50;;;;;;;2.85;1.50;;;22.30;47.70;;;;;;5132905;28;20033;-82
2022/06/24 05:00:16;;;;;;;5.57;1.95;;;22.40;47.30;;;;;;5113956;28;20023;-81
2022/06/24 05:02:42;;;;;;;6.05;1.98;;;22.40;46.90;;;;;;5123423;28;20031;-81
2022/06/24 05:05:09;;;;;;;5.17;2.63;;;22.50;46.60;;;;;;5132965;28;20468;-83
2022/06/24 05:07:35;;;;;;;2.65;1.90;;;22.60;46.70;;;;;;5111347;28;20131;-83
2022/06/24 05:10:03;;;;;;;3.20;1.85;;;22.70;47.00;;;;;;5120802;28;20043;-83
2022/06/24 05:12:29;;;;;;;4.32;2.00;;;22.70;46.80;;;;;;5107013;28;20105;-84
2022/06/24 05:14:55;;;;;;;4.00;2.08;;;22.90;46.70;;;;;;5116845;28;20491;-82
2022/06/24 05:17:21;;;;;;;3.83;1.98;;;23.50;46.20;;;;;;5114356;28;20027;-83
2022/06/24 05:19:47;;;;;;;5.85;2.78;;;24.30;44.90;;;;;;5142193;28;20012;-86
2022/06/24 05:22:13;;;;;;;4.05;1.70;;;25.40;43.90;;;;;;5140629;28;20115;-86
2022/06/24 05:24:39;;;;;;;5.22;2.00;;;26.60;42.10;;;;;;5134668;28;20020;-84
2022/06/24 05:27:05;;;;;;;4.28;2.45;;;;;;;;;;5133971;28;20047;-86
2022/06/24 05:29:31;;;;;;;2.50;1.73;;;27.80;40.50;;;;;;5134025;28;20023;-83
2022/06/24 05:31:57;;;;;;;4.90;1.85;;;29.20;38.10;;;;;;5114519;28;20030;-85
2022/06/24 05:34:22;;;;;;;8.65;1.98;;;29.50;38.40;;;;;;5109574;28;20028;-86
2022/06/24 05:36:48;;;;;;;4.32;2.10;;;30.10;37.00;;;;;;5128715;28;20031;-85
2022/06/24 05:39:14;;;;;;;2.63;1.65;;;30.80;36.00;;;;;;5137550;28;20020;-85
2022/06/24 05:41:41;;;;;;;5.88;2.05;;;30.90;34.50;;;;;;5116745;27;20031;-84
2022/06/24 05:44:08;;;;;;;4.22;1.70;;;;;;;;;;5137859;27;20019;-82
2022/06/24 05:46:34;;;;;;;4.53;1.63;;;;;;;;;;5138666;27;20099;-82
2022/06/24 05:49:00;;;;;;;4.87;1.57;;;;;;;;;;5122885;27;20027;-82
2022/06/24 05:51:27;;;;;;;3.50;2.10;;;;;;;;;;5120262;27;20358;-83
2022/06/24 05:56:37;;;;;;;4.55;1.60;;;;;;;;;;5138993;27;20034;-84
2022/06/24 05:59:04;;;;;;;3.20;1.20;;;;;;;;;;5139345;27;20484;-84
2022/06/24 06:01:30;;;;;;;4.75;1.65;;;;;;;;;;5139504;27;20358;-85
2022/06/24 06:03:56;;;;;;;3.97;1.35;;;31.20;33.90;;;;;;5139083;27;20023;-83
2022/06/24 06:06:23;;;;;;;2.35;1.65;;;34.40;31.30;;;;;;5139051;27;20176;-84
2022/06/24 06:08:49;;;;;;;;;;;34.60;31.00;;;;;;5117043;28;20030;-82
2022/06/24 06:11:15;;;;;;;3.17;1.40;;;34.60;31.70;;;;;;5132839;27;19907;-83
2022/06/24 06:13:42;;;;;;;6.40;1.80;;;34.40;30.30;;;;;;5137415;27;20087;-82
2022/06/24 06:16:09;;;;;;;2.33;1.58;;;34.30;30.30;;;;;;5139306;27;20065;-84
2022/06/24 06:18:35;;;;;;;1.98;1.45;;;34.30;30.70;;;;;;5117491;27;20043;-83
2022/06/24 06:21:01;;;;;;;5.93;1.73;;;;;;;;;;5119207;27;20058;-84
2022/06/24 06:23:28;;;;;;;;;;;34.60;30.50;;;;;;5113870;27;20031;-83
2022/06/24 06:25:55;;;;;;;3.17;1.40;;;35.60;30.30;;;;;;5132477;27;19994;-83
2022/06/24 06:28:21;;;;;;;4.95;2.10;;;;;;;;;;5146241;27;20039;-84
2022/06/24 06:30:47;;;;;;;2.20;1.58;;;;;;;;;;5119379;27;20015;-83
2022/06/24 06:33:14;;;;;;;3.03;1.67;;;;;;;;;;5138447;27;20023;-83
2022/06/24 06:35:39;;;;;;;;;;;36.20;29.60;;;;;;5138680;27;20023;-84
2022/06/24 06:38:05;;;;;;;3.03;1.98;;;38.20;29.60;;;;;;5138077;27;19907;-82
2022/06/24 06:40:37;;;;;;;3.33;1.67;;;38.70;28.70;;;;;;5106001;27;20038;-83
2022/06/24 06:43:05;;;;;;;2.63;1.50;;;39.70;28.40;;;;;;5106864;27;20059;-84
2022/06/24 06:45:32;;;;;;;3.05;1.63;;;39.50;28.00;;;;;;5137696;27;20102;-83
2022/06/24 06:47:58;;;;;;;2.47;1.80;;;38.80;28.20;;;;;;5137169;27;20039;-81
2022/06/24 06:50:24;;;;;;;3.05;1.50;;;38.60;28.40;;;;;;5138513;27;20046;-84
2022/06/24 06:52:50;;;;;;;7.18;3.80;;;38.80;28.50;;;;;;5135287;27;20114;-85
2022/06/24 06:55:16;;;;;;;5.63;2.03;;;40.00;27.80;;;;;;5118763;27;20073;-84
2022/06/24 06:57:42;;;;;;;4.05;1.75;;;39.90;27.80;;;;;;5119586;27;20026;-84
2022/06/24 07:00:09;;;;;;;5.00;1.50;;;40.40;27.80;;;;;;5138198;27;20392;-84
2022/06/24 07:02:36;;;;;;;5.57;1.92;;;40.80;28.00;;;;;;5138057;27;20039;-84
2022/06/24 07:05:02;;;;;;;5.00;1.50;;;41.40;32.70;;;;;;5121224;27;20091;-84
2022/06/24 07:07:28;;;;;;;2.30;1.45;;;41.90;26.70;;;;;;5131490;27;20098;-85
2022/06/24 07:09:54;;;;;;;3.70;1.45;;;42.20;26.80;;;;;;5111128;27;20103;-84
2022/06/24 07:12:21;;;;;;;3.70;1.48;;;41.70;26.60;;;;;;5105293;28;20070;-84
2022/06/24 07:14:46;;;;;;;;;;;40.30;27.30;;;;;;5111111;27;20027;-82
2022/06/24 07:17:12;;;;;;;4.78;1.75;;;40.90;28.10;;;;;;5136477;27;19907;-81
2022/06/24 07:19:38;;;;;;;3.55;1.83;;;42.00;27.20;;;;;;5126455;27;20034;-86
2022/06/24 07:22:04;;;;;;;4.72;1.80;;;42.90;26.50;;;;;;5128813;27;20035;-83
2022/06/24 07:24:30;;;;;;;;;;;42.80;26.30;;;;;;5118048;27;20759;-86
2022/06/24 07:26:56;;;;;;;2.05;1.67;;;43.00;27.20;;;;;;5120261;27;19919;-87
2022/06/24 07:29:22;;;;;;;5.00;2.17;;;42.80;26.20;;;;;;5119846;27;20472;-87
2022/06/24 07:31:48;;;;;;;4.93;2.10;;;41.90;26.90;;;;;;5138369;27;20027;-89
2022/06/24 07:34:14;;;;;;;4.72;1.70;;;42.00;26.60;;;;;;5137871;27;20553;-89
2022/06/24 07:36:41;;;;;;;4.22;1.20;;;42.60;26.70;;;;;;5139420;27;20156;-87
2022/06/24 07:39:07;;;;;;;4.07;1.50;;;42.50;26.30;;;;;;5137525;27;20019;-85
2022/06/24 07:41:33;;;;;;;5.13;1.98;;;41.90;26.80;;;;;;5137434;27;20027;-86
2022/06/24 07:43:59;;;;;;;;;;;41.50;26.90;;;;;;5132903;27;20020;-87
2022/06/24 07:46:25;;;;;;;1.65;1.55;;;41.20;26.90;;;;;;5138488;27;19903;-86
2022/06/24 07:48:51;;;;;;;2.35;1.70;;;39.60;27.40;;;;;;5142267;27;20027;-86
2022/06/24 07:51:19;;;;;;;;;;;38.60;27.90;;;;;;5135939;27;20032;-84
2022/06/24 07:53:46;;;;;;;4.55;1.83;;;38.60;28.40;;;;;;5134770;27;19907;-86
2022/06/24 07:58:57;;;;;;;7.05;3.85;;;40.90;26.90;;;;;;5139453;27;20034;-86
2022/06/24 08:01:23;;;;;;;6.93;2.90;;;40.90;27.30;;;;;;5126385;27;20038;-86
2022/06/24 08:03:49;;;;;;;;;;;41.20;27.10;;;;;;5150457;27;20019;-86
2022/06/24 08:06:15;;;;;;;6.45;2.83;;;42.40;27.20;;;;;;5143014;27;19903;-87
2022/06/24 08:08:41;;;;;;;3.08;2.30;;;42.60;27.10;;;;;;5148149;27;20057;-85
2022/06/24 08:11:07;;;;;;;;;;;42.50;26.30;;;;;;5134482;27;20027;-89
2022/06/24 08:13:33;;;;;;;4.15;2.20;;;42.70;27.10;;;;;;5135593;27;19911;-88
2022/06/24 08:16:00;;;;;;;10.13;5.55;;;42.50;26.80;;;;;;5119080;27;20027;-86
2022/06/24 08:18:26;;;;;;;12.50;8.63;;;41.80;26.70;;;;;;5119190;27;20099;-86
2022/06/24 08:20:52;;;;;;;4.00;2.35;;;40.20;27.30;;;;;;5119696;28;20061;-87
2022/06/24 08:23:18;;;;;;;2.58;1.92;;;39.50;27.90;;;;;;5137594;27;20091;-86
2022/06/24 08:25:45;;;;;;;5.72;3.45;;;40.60;27.90;;;;;;5131987;27;20024;-86
2022/06/24 08:28:11;;;;;;;4.78;1.67;;;40.90;27.30;;;;;;5082440;28;20062;-87
2022/06/24 08:30:37;;;;;;;2.13;1.73;;;39.90;27.50;;;;;;5096080;28;20089;-87
2022/06/24 08:33:03;;;;;;;3.72;2.20;;;39.60;28.10;;;;;;5096978;28;20103;-87
2022/06/24 08:35:30;;;;;;;5.45;2.63;;;40.90;27.90;;;;;;5096188;28;20103;-87
2022/06/24 08:37:57;;;;;;;5.95;3.47;;;42.20;27.20;;;;;;5096399;28;20081;-85
2022/06/24 08:40:25;;;;;;;9.88;3.33;;;42.10;26.60;;;;;;5096914;28;20031;-86
2022/06/24 08:42:58;;;;;;;3.17;1.73;;;41.50;27.00;;;;;;5097468;28;20508;-85
2022/06/24 08:45:25;;;;;;;3.92;1.67;;;42.10;27.10;;;;;;5082303;28;20028;-85
2022/06/24 08:47:51;;;;;;;5.45;1.65;;;42.50;26.70;;;;;;5078860;28;20031;-85
2022/06/24 08:50:19;;;;;;;4.43;1.67;;;42.00;26.70;;;;;;5098379;28;20035;-86
2022/06/24 08:52:50;;;;;;;1.80;1.70;;;41.60;26.90;;;;;;5077877;28;20111;-87
2022/06/24 08:55:17;;;;;;;3.50;1.90;;;41.80;27.10;;;;;;5078109;28;20463;-85
2022/06/24 08:57:43;;;;;;;4.03;2.20;;;41.70;27.10;;;;;;5095991;28;20024;-87
2022/06/24 09:00:09;;;;;;;4.50;2.47;;;41.70;27.10;;;;;;5078872;28;20074;-87
2022/06/24 09:02:35;;;;;;;3.65;2.63;;;41.40;27.00;;;;;;5096823;28;20028;-86
2022/06/24 09:05:07;;;;;;;;;;;41.30;27.10;;;;;;5095993;28;20099;-86
2022/06/24 09:07:33;;;;;;;4.18;2.42;;;40.60;27.50;;;;;;5096861;28;20289;-86
2022/06/24 09:10:00;;;;;;;;;;;40.50;27.50;;;;;;5097447;28;20026;-87
2022/06/24 09:12:46;;;;;;;6.35;2.95;;;41.10;27.60;;;;;;5098634;28;19919;-84
2022/06/24 09:15:13;;;;;;;13.40;8.57;;;40.50;27.60;;;;;;5094636;28;20446;-86
2022/06/24 09:17:40;;;;;;;4.70;2.67;;;40.30;27.50;;;;;;5090523;28;20451;-87
2022/06/24 09:20:10;;;;;;;4.63;1.98;;;40.60;27.80;;;;;;5103451;28;20020;-90
2022/06/24 09:22:37;;;;;;;4.13;2.03;;;41.30;27.40;;;;;;5102652;28;20032;-87
2022/06/24 09:25:04;;;;;;;5.22;1.90;;;41.60;27.50;;;;;;5100561;28;20027;-87
2022/06/24 09:27:30;;;;;;;4.07;2.20;;;41.90;27.00;;;;;;5092693;28;20035;-86
2022/06/24 09:29:56;;;;;;;3.15;1.95;;;41.10;27.50;;;;;;5102026;28;20130;-86
2022/06/24 09:32:22;;;;;;;4.47;2.95;;;40.60;27.50;;;;;;5119990;28;20197;-85
2022/06/24 09:35:08;;;;;;;5.57;3.13;;;38.80;27.90;;;;;;5102786;28;20028;-88
2022/06/24 09:37:36;;;;;;;3.65;2.38;;;37.00;29.70;;;;;;5121094;28;20012;-87
2022/06/24 09:40:27;;;;;;;7.00;2.75;;;36.30;30.10;;;;;;5126117;27;20028;-86
2022/06/24 09:43:06;;;;;;;1.95;1.80;;;37.30;30.00;;;;;;5140182;27;20031;-88
2022/06/24 09:45:51;;;;;;;5.63;3.42;;;39.00;29.10;;;;;;5122138;27;20019;-86
2022/06/24 09:48:32;;;;;;;4.28;2.33;;;39.20;28.90;;;;;;5111027;27;20027;-84
2022/06/24 09:51:06;;;;;;;6.10;2.95;;;40.00;28.40;;;;;;5140723;27;20031;-89
2022/06/24 09:53:37;;;;;;;3.03;1.80;;;40.50;28.00;;;;;;5139373;27;20026;-87
2022/06/24 09:56:07;;;;;;;5.35;1.75;;;40.40;27.80;;;;;;5122243;27;20119;-87
2022/06/24 09:58:37;;;;;;;4.50;2.17;;;40.70;28.00;;;;;;5122233;27;20031;-86
2022/06/24 10:01:05;;;;;;;4.43;1.70;;;41.30;27.80;;;;;;5143573;27;20022;-88
2022/06/24 10:03:33;;;;;;;3.08;2.00;;;41.60;27.40;;;;;;5125732;27;20027;-87
2022/06/24 10:06:05;;;;;;;5.57;1.80;;;41.20;27.40;;;;;;5141228;27;20019;-86
2022/06/24 10:08:34;;;;;;;4.28;2.20;;;41.20;27.30;;;;;;5121728;27;20507;-86
2022/06/24 10:11:06;;;;;;;5.35;1.98;;;41.50;27.20;;;;;;5130373;27;20020;-86
2022/06/24 10:13:33;;;;;;;3.80;1.85;;;42.30;27.20;;;;;;5117463;27;20532;-85
2022/06/24 10:16:05;;;;;;;10.57;2.78;;;42.60;26.70;;;;;;5125391;27;20023;-89
2022/06/24 10:18:43;;;;;;;5.30;3.35;;;41.70;26.90;;;;;;5139299;27;20015;-85
2022/06/24 10:21:11;;;;;;;3.22;2.30;;;41.00;27.50;;;;;;5142140;27;20019;-86
2022/06/24 10:24:04;;;;;;;3.97;2.03;;;40.80;27.50;;;;;;5120533;27;20039;-85
2022/06/24 10:26:32;;;;;;;6.38;3.08;;;39.80;27.70;;;;;;5135508;27;20038;-86
2022/06/24 10:29:03;;;;;;;4.68;3.03;;;39.10;28.10;;;;;;5138556;27;20030;-85
2022/06/24 10:31:52;;;;;;;4.32;2.40;;;38.70;28.00;;;;;;5141717;27;20012;-85
2022/06/24 10:34:29;;;;;;;5.00;3.28;;;37.60;28.10;;;;;;5147232;27;20092;-87
2022/06/24 10:37:06;;;;;;;4.40;2.28;;;36.00;29.00;;;;;;5140237;27;20510;-87
2022/06/24 10:39:46;;;;;;;3.03;2.30;;;34.50;30.30;;;;;;5115133;28;20019;-85
2022/06/24 10:42:14;;;;;;;4.07;2.33;;;31.70;31.40;;;;;;5114666;27;20042;-87
2022/06/24 10:45:09;;;;;;;2.30;1.90;;;30.80;33.60;;;;;;5131779;27;20550;-85
2022/06/24 10:47:35;;;;;;;4.07;3.33;;;29.70;35.00;;;;;;5138699;27;20035;-86
2022/06/24 10:50:02;;;;;;;6.18;2.67;;;28.70;36.60;;;;;;5139376;27;20404;-86
2022/06/24 10:52:38;;;;;;;3.55;2.40;;;28.10;38.30;;;;;;5122146;27;20027;-87
2022/06/24 10:55:37;;;;;;;4.57;2.67;;;27.80;38.80;;;;;;5122865;27;20057;-89
2022/06/24 10:58:13;;;;;;;5.95;2.45;;;27.60;38.80;;;;;;5061837;28;20039;-84
2022/06/24 11:00:39;;;;;;;8.35;3.78;;;27.50;39.90;;;;;;5070390;28;20059;-84
2022/06/24 11:03:05;;;;;;;5.03;3.00;;;27.40;39.10;;;;;;5039379;28;20502;-86
2022/06/24 11:05:37;;;;;;;3.65;2.30;;;27.20;40.00;;;;;;5040628;28;20021;-85
2022/06/24 11:08:14;;;;;;;3.17;2.65;;;27.20;40.10;;;;;;5055477;28;20075;-86
2022/06/24 11:10:41;;;;;;;3.70;2.55;;;27.20;39.60;;;;;;5050897;28;20098;-88
2022/06/24 11:13:07;;;;;;;4.75;2.60;;;27.20;40.10;;;;;;5034005;28;20579;-85
2022/06/24 11:15:37;;;;;;;3.85;2.65;;;27.20;39.90;;;;;;5056323;28;20024;-86
2022/06/24 11:18:06;;;;;;;6.10;3.80;;;27.10;39.70;;;;;;5060131;28;20033;-86
2022/06/24 11:20:38;;;;;;;4.72;2.47;;;27.00;40.30;;;;;;5057295;28;20084;-86
2022/06/24 11:23:09;;;;;;;3.95;2.63;;;26.90;40.80;;;;;;5062085;28;20032;-86
2022/06/24 11:25:36;;;;;;;5.88;2.85;;;;;;;;;;5060846;28;20032;-86
2022/06/24 11:28:02;;;;;;;4.95;2.13;;;;;;;;;;5056257;28;20399;-85
2022/06/24 11:30:29;;;;;;;4.18;2.55;;;;;;;;;;5055534;28;20036;-86
2022/06/24 11:33:01;;;;;;;3.00;2.30;;;26.90;67.20;;;;;;5073521;27;20035;-84
2022/06/24 11:35:29;;;;;;;3.47;2.38;;;26.50;41.40;;;;;;5138285;27;20030;-86
2022/06/24 11:37:58;;;;;;;5.05;2.45;;;26.40;41.60;;;;;;5131989;27;20047;-88
2022/06/24 11:40:28;;;;;;;2.60;2.40;;;26.30;41.60;;;;;;5116898;28;20106;-86
2022/06/24 11:42:54;;;;;;;4.22;2.72;;;26.40;41.20;;;;;;5137288;27;20031;-87
2022/06/24 11:45:35;;;;;;;6.57;2.85;;;26.40;41.00;;;;;;5120493;27;20027;-84
2022/06/24 11:48:03;;;;;;;4.13;2.65;;;26.40;41.50;;;;;;5119650;27;20062;-84
2022/06/24 11:50:30;;;;;;;3.58;2.33;;;26.40;41.90;;;;;;5136804;27;20106;-84
2022/06/24 11:52:56;;;;;;;;;;;26.50;41.60;;;;;;5120803;27;20447;-84
2022/06/24 11:55:37;;;;;;;6.90;3.10;;;26.50;41.30;;;;;;5127857;27;19914;-88
2022/06/24 11:58:06;;;;;;;6.57;2.75;;;26.50;41.90;;;;;;5135597;27;20019;-85
2022/06/24 12:00:35;;;;;;;4.60;2.75;;;26.50;41.90;;;;;;5139603;27;20082;-85
2022/06/24 12:03:03;;;;;;;5.47;3.70;;;26.50;41.90;;;;;;5138534;27;20034;-87
2022/06/24 12:05:31;;;;;;;6.55;3.30;;;26.50;41.90;;;;;;5138028;27;20094;-85
2022/06/24 12:07:58;;;;;;;2.42;1.95;;;26.40;42.00;;;;;;5114468;27;20042;-87
2022/06/24 12:10:24;;;;;;;4.85;2.58;;;26.40;41.60;;;;;;5134087;27;20016;-85
2022/06/24 12:13:03;;;;;;;2.92;2.45;;;26.30;42.30;;;;;;5108452;27;20133;-84
2022/06/24 12:15:33;;;;;;;6.57;2.70;;;26.30;42.40;;;;;;5137550;27;20076;-87
2022/06/24 12:17:59;;;;;;;4.32;2.55;;;26.40;42.60;;;;;;5108208;28;20465;-85
2022/06/24 12:20:28;;;;;;;6.70;2.95;;;26.40;42.50;;;;;;5133300;27;20027;-86
2022/06/24 12:23:17;;;;;;;5.78;2.28;;;26.40;42.50;;;;;;5137330;27;20433;-85
2022/06/24 12:25:45;;;;;;;3.00;2.67;;;26.50;42.40;;;;;;5136625;27;20027;-86
2022/06/24 12:28:22;;;;;;;6.22;2.70;;;26.50;42.90;;;;;;5137066;27;20078;-86
2022/06/24 12:31:04;;;;;;;;;;;26.50;42.20;;;;;;5137766;27;20011;-86
2022/06/24 12:33:33;;;;;;;5.50;2.50;;;26.50;41.90;;;;;;5119225;27;19903;-86
2022/06/24 12:36:11;;;;;;;7.10;2.28;;;26.40;42.50;;;;;;5119835;27;20015;-87
2022/06/24 12:38:57;;;;;;;5.00;2.65;;;26.50;42.40;;;;;;5118772;27;20027;-86
2022/06/24 12:41:23;;;;;;;5.97;2.63;;;26.50;42.40;;;;;;5123574;27;20030;-85
2022/06/24 12:44:01;;;;;;;8.02;2.42;;;26.40;42.50;;;;;;5138125;27;20039;-86
2022/06/24 12:46:33;;;;;;;4.55;3.28;;;26.40;42.70;;;;;;5108192;28;20026;-86
2022/06/24 12:51:48;;;;;;;8.13;2.90;;;26.50;42.10;;;;;;5126652;27;20079;-84
2022/06/24 12:54:15;;;;;;;4.43;2.22;;;26.30;42.30;;;;;;5142413;27;20090;-85
2022/06/24 12:56:44;;;;;;;3.70;2.42;;;26.30;42.30;;;;;;5141487;27;20117;-84
2022/06/24 12:59:10;;;;;;;3.50;2.72;;;26.30;42.20;;;;;;5121186;27;20055;-85
2022/06/24 13:01:41;;;;;;;5.43;2.30;;;26.30;42.50;;;;;;5121674;27;20538;-86
2022/06/24 13:04:07;;;;;;;5.57;2.65;;;26.30;42.80;;;;;;5123186;27;20034;-87
2022/06/24 13:06:32;;;;;;;5.85;2.50;;;26.30;43.00;;;;;;5141664;27;20020;-86
2022/06/24 13:08:59;;;;;;;3.72;2.47;;;26.30;43.30;;;;;;5140948;27;20039;-87
2022/06/24 13:11:25;;;;;;;4.43;2.85;;;26.30;43.30;;;;;;5129943;27;20023;-86
2022/06/24 13:13:52;;;;;;;4.20;2.63;;;26.30;43.60;;;;;;5140794;27;20027;-86